Time;durP1;ratioP1;P1;durP2;ratioP2;P2;SDS_P1;SDS_P2;PMS_P1;PMS_P2;Temp;Humidity;BMP_temperature;BMP_pressure;BME280_temperature;BME280_humidity;BME280_pressure;Samples;Min_cycle;Max_cycle;Signal;HPM_P1;HPM_P2
2023/09/29 00:01:35;;;;;;;0.00;0.00;;;;;;;16.43;100.00;99623.06;4865874;29;20048;-74
2023/09/29 00:04:05;;;;;;;0.00;0.00;;;;;;;16.42;100.00;99610.41;4855465;29;20036;-73
2023/09/29 00:06:32;;;;;;;0.00;0.00;;;;;;;16.50;100.00;99619.78;4871881;29;20040;-75
2023/09/29 00:08:59;;;;;;;0.00;0.00;;;;;;;16.50;100.00;99612.34;4868602;29;20029;-75
2023/09/29 00:11:25;;;;;;;0.00;0.00;;;;;;;16.54;100.00;99627.13;4848345;29;20036;-75
2023/09/29 00:13:50;;;;;;;0.00;0.00;;;;;;;16.54;100.00;99627.13;4875280;29;20498;-75
2023/09/29 00:16:16;;;;;;;0.00;0.00;;;;;;;16.60;100.00;99627.75;4874687;29;20035;-75
2023/09/29 00:18:42;;;;;;;0.00;0.00;;;;;;;16.56;100.00;99616.56;4883985;29;20039;-75
2023/09/29 00:21:07;;;;;;;0.00;0.00;;;;;;;16.63;100.00;99623.53;4889911;29;20043;-75
2023/09/29 00:23:34;;;;;;;0.00;0.00;;;;;;;16.64;100.00;99625.16;4880190;29;20021;-74
2023/09/29 00:26:00;;;;;;;0.00;0.00;;;;;;;16.67;100.00;99630.03;4872902;29;20407;-74
2023/09/29 00:28:27;;;;;;;0.00;0.00;;;;;;;16.66;100.00;99620.09;4864645;29;20032;-74
2023/09/29 00:30:53;;;;;;;0.00;0.00;;;;;;;16.72;100.00;99621.59;4858216;29;20036;-74
2023/09/29 00:33:36;;;;;;;0.00;0.00;;;;;;;16.71;100.00;99619.97;4885288;29;20064;-74
2023/09/29 00:36:01;;;;;;;0.00;0.00;;;;;;;16.72;100.00;99611.34;4871051;29;20045;-73
2023/09/29 00:38:27;;;;;;;0.00;0.00;;;;;;;16.75;100.00;99613.44;4873565;29;20551;-74
2023/09/29 00:40:52;;;;;;;0.00;0.00;;;;;;;16.82;100.00;99618.47;4880932;29;20060;-74
2023/09/29 00:43:18;;;;;;;0.00;0.00;;;;;;;16.81;100.00;99611.34;4869977;29;20029;-74
2023/09/29 00:45:44;;;;;;;0.00;0.00;;;;;;;16.86;100.00;99622.19;4880565;29;20032;-74
2023/09/29 00:48:10;;;;;;;0.00;0.00;;;;;;;16.87;100.00;99618.31;4869593;29;20131;-74
2023/09/29 00:50:39;;;;;;;0.00;0.00;;;;;;;16.87;100.00;99621.09;4872668;29;20107;-75
2023/09/29 00:53:11;;;;;;;0.00;0.00;;;;;;;16.85;100.00;99626.09;4883627;29;20119;-74
2023/09/29 00:55:37;;;;;;;0.00;0.00;;;;;;;16.90;100.00;99644.47;4894835;29;20072;-74
2023/09/29 00:58:05;;;;;;;0.00;0.00;;;;;;;16.84;100.00;99652.09;4879549;29;20083;-75
2023/09/29 01:00:32;;;;;;;0.00;0.00;;;;;;;16.76;100.00;99666.69;4882637;29;20036;-75
2023/09/29 01:03:04;;;;;;;0.00;0.00;;;;;;;16.58;100.00;99665.91;4892786;29;22175;-74
2023/09/29 01:05:32;;;;;;;0.00;0.00;;;;;;;16.41;100.00;99661.19;4877749;29;20020;-76
2023/09/29 01:07:58;;;;;;;0.00;0.00;;;;;;;16.35;100.00;99673.53;4882435;29;20044;-76
2023/09/29 01:10:24;;;;;;;0.00;0.00;;;;;;;16.28;100.00;99673.19;4869430;29;20033;-76
2023/09/29 01:12:50;;;;;;;0.00;0.00;;;;;;;16.16;100.00;99671.88;4850690;29;20033;-79
2023/09/29 01:15:19;;;;;;;0.00;0.00;;;;;;;16.11;100.00;99674.00;4866136;29;20033;-77
2023/09/29 01:17:44;;;;;;;0.00;0.00;;;;;;;16.02;100.00;99688.56;4875379;29;20054;-76
2023/09/29 01:20:27;;;;;;;0.00;0.00;;;;;;;15.91;100.00;99680.91;4883278;29;20027;-75
2023/09/29 01:22:53;;;;;;;0.00;0.00;;;;;;;15.81;100.00;99682.84;4884470;29;20044;-76
2023/09/29 01:25:18;;;;;;;0.00;0.00;;;;;;;15.83;100.00;99697.09;4883994;29;20285;-76
2023/09/29 01:27:45;;;;;;;0.00;0.00;;;;;;;15.71;100.00;99681.13;4881731;29;20065;-76
2023/09/29 01:30:13;;;;;;;0.00;0.00;;;;;;;15.76;100.00;99698.66;4868722;29;20040;-76
2023/09/29 01:32:40;;;;;;;0.00;0.00;;;;;;;15.68;100.00;99694.72;4886326;29;20035;-76
2023/09/29 01:35:06;;;;;;;0.00;0.00;;;;;;;15.69;100.00;99708.19;4859700;29;20040;-77
2023/09/29 01:37:34;;;;;;;0.00;0.00;;;;;;;15.68;100.00;99706.59;4884861;29;20032;-78
2023/09/29 01:39:59;;;;;;;0.00;0.00;;;;;;;15.70;100.00;99714.53;4878010;29;20064;-77
2023/09/29 01:42:24;;;;;;;0.00;0.00;;;;;;;15.62;100.00;99702.31;4854664;29;20091;-76
2023/09/29 01:44:51;;;;;;;0.00;0.00;;;;;;;15.71;100.00;99718.91;4876567;29;20032;-76
2023/09/29 01:47:26;;;;;;;0.00;0.00;;;;;;;15.64;100.00;99710.31;4859205;29;20361;-76
2023/09/29 01:49:52;;;;;;;0.00;0.00;;;;;;;15.57;100.00;99701.69;4849095;29;20827;-77
2023/09/29 01:52:17;;;;;;;0.00;0.00;;;;;;;15.63;100.00;99723.25;4874960;29;20063;-77
2023/09/29 01:54:43;;;;;;;0.00;0.00;;;;;;;15.63;100.00;99736.22;4838118;29;20468;-76
2023/09/29 01:57:08;;;;;;;0.00;0.00;;;;;;;15.62;100.00;99734.59;4861941;29;20063;-78
2023/09/29 01:59:34;;;;;;;0.00;0.00;;;;;;;15.60;100.00;99723.88;4856815;29;21607;-77
2023/09/29 02:01:59;;;;;;;0.00;0.00;;;;;;;15.57;100.00;99715.44;4871735;29;20041;-76
2023/09/29 02:04:24;;;;;;;0.00;0.00;;;;;;;15.62;100.00;99729.06;4841379;29;20025;-77
2023/09/29 02:06:50;;;;;;;0.00;0.00;;;;;;;15.50;100.00;99713.13;4869796;29;20040;-78
2023/09/29 02:09:16;;;;;;;0.00;0.00;;;;;;;15.61;100.00;99733.78;4871161;29;20052;-77
2023/09/29 02:11:44;;;;;;;0.00;0.00;;;;;;;15.60;100.00;99736.84;4870093;29;20050;-78
2023/09/29 02:14:09;;;;;;;0.00;0.00;;;;;;;15.58;100.00;99737.19;4877338;29;20436;-78
2023/09/29 02:16:35;;;;;;;0.00;0.00;;;;;;;15.53;100.00;99738.09;4843408;29;20147;-78
2023/09/29 02:19:02;;;;;;;0.00;0.00;;;;;;;15.51;100.00;99750.59;4858349;29;20725;-76
2023/09/29 02:21:31;;;;;;;0.00;0.00;;;;;;;15.54;100.00;99766.50;4863311;29;20051;-76
2023/09/29 02:23:57;;;;;;;0.00;0.00;;;;;;;15.51;100.00;99773.44;4862444;29;20040;-76
2023/09/29 02:26:23;;;;;;;0.00;0.00;;;;;;;15.49;100.00;99764.69;4854728;29;20520;-76
2023/09/29 02:28:48;;;;;;;0.00;0.00;;;;;;;15.52;100.00;99780.59;4866844;29;20041;-75
2023/09/29 02:31:14;;;;;;;0.00;0.00;;;;;;;15.54;100.00;99789.34;4896176;29;20456;-75
2023/09/29 02:33:40;;;;;;;0.00;0.00;;;;;;;15.52;100.00;99797.13;4869939;29;20092;-76
2023/09/29 02:36:07;;;;;;;0.00;0.00;;;;;;;15.55;100.00;99806.69;4873674;29;20062;-76
2023/09/29 02:38:33;;;;;;;0.00;0.00;;;;;;;15.53;100.00;99826.28;4882049;29;20033;-77
2023/09/29 02:40:59;;;;;;;0.00;0.00;;;;;;;15.50;100.00;99826.09;4848364;29;20383;-76
2023/09/29 02:43:30;;;;;;;0.00;0.00;;;;;;;15.48;100.00;99828.38;4870962;29;20161;-76
2023/09/29 02:45:58;;;;;;;0.00;0.00;;;;;;;15.43;100.00;99837.56;4866918;29;20420;-76
2023/09/29 02:48:24;;;;;;;0.00;0.00;;;;;;;15.41;100.00;99845.31;4865722;29;20373;-76
2023/09/29 02:50:49;;;;;;;0.00;0.00;;;;;;;15.35;100.00;99852.09;4886289;29;20037;-76
2023/09/29 02:53:15;;;;;;;0.00;0.00;;;;;;;15.39;100.00;99858.63;4844011;29;20080;-77
2023/09/29 02:55:41;;;;;;;0.00;0.00;;;;;;;15.37;100.00;99855.34;4858045;29;20448;-78
2023/09/29 02:58:07;;;;;;;0.00;0.00;;;;;;;15.28;100.00;99857.22;4853392;29;20024;-76
2023/09/29 03:00:33;;;;;;;0.00;0.00;;;;;;;15.31;100.00;99867.59;4883556;29;20460;-76
2023/09/29 03:02:59;;;;;;;0.00;0.00;;;;;;;15.22;100.00;99863.97;4870130;29;20028;-77
2023/09/29 03:05:25;;;;;;;0.00;0.00;;;;;;;15.24;100.00;99889.25;4874585;29;20111;-77
2023/09/29 03:07:51;;;;;;;0.00;0.00;;;;;;;15.20;100.00;99891.84;4852523;29;21646;-76
2023/09/29 03:10:17;;;;;;;0.00;0.00;;;;;;;15.15;100.00;99895.50;4878965;29;20479;-75
2023/09/29 03:12:44;;;;;;;0.00;0.00;;;;;;;15.25;100.00;99912.94;4885447;29;20029;-76
2023/09/29 03:15:15;;;;;;;0.00;0.00;;;;;;;15.23;100.00;99920.66;4849227;29;20024;-76
2023/09/29 03:17:42;;;;;;;0.00;0.00;;;;;;;15.19;100.00;99914.97;4868064;29;20033;-75
2023/09/29 03:20:11;;;;;;;0.00;0.00;;;;;;;15.23;100.00;99937.19;4872294;29;20482;-76
2023/09/29 03:22:37;;;;;;;0.00;0.00;;;;;;;15.17;100.00;99934.56;4860016;29;20036;-76
2023/09/29 03:25:04;;;;;;;0.00;0.00;;;;;;;15.14;100.00;99935.19;4852978;29;20036;-76
2023/09/29 03:27:29;;;;;;;0.00;0.00;;;;;;;15.06;100.00;99946.91;4859612;29;20033;-76
2023/09/29 03:29:55;;;;;;;0.00;0.00;;;;;;;14.86;100.00;99953.66;4865813;29;20502;-76
2023/09/29 03:32:20;;;;;;;0.00;0.00;;;;;;;14.73;100.00;99951.72;4867426;29;20032;-77
2023/09/29 03:34:46;;;;;;;0.00;0.00;;;;;;;14.62;100.00;99942.88;4849621;29;20033;-76
2023/09/29 03:37:13;;;;;;;0.00;0.00;;;;;;;14.47;100.00;99952.16;4858427;29;20112;-76
2023/09/29 03:39:38;;;;;;;0.00;0.00;;;;;;;14.36;100.00;99957.06;4858645;29;20108;-76
2023/09/29 03:42:04;;;;;;;0.00;0.00;;;;;;;14.29;100.00;99965.72;4838085;29;20858;-76
2023/09/29 03:44:29;;;;;;;0.00;0.00;;;;;;;14.21;100.00;99968.34;4857808;29;20029;-77
2023/09/29 03:46:55;;;;;;;0.00;0.00;;;;;;;14.18;100.00;99964.25;4871179;29;20063;-75
2023/09/29 03:49:20;;;;;;;0.00;0.00;;;;;;;14.27;100.00;99984.44;4853980;29;20156;-76
2023/09/29 03:51:46;;;;;;;0.00;0.00;;;;;;;14.30;100.00;99985.78;4855633;29;20044;-76
2023/09/29 03:54:11;;;;;;;0.00;0.00;;;;;;;14.35;100.00;99985.66;4877357;29;20029;-77
2023/09/29 03:56:36;;;;;;;0.00;0.00;;;;;;;14.36;100.00;99992.81;4847413;29;20029;-76
2023/09/29 03:59:02;;;;;;;0.00;0.00;;;;;;;14.35;100.00;100004.13;4862922;29;20024;-76
2023/09/29 04:01:27;;;;;;;0.00;0.00;;;;;;;14.27;100.00;100005.63;4852527;29;20029;-75
2023/09/29 04:03:56;;;;;;;0.00;0.00;;;;;;;14.19;100.00;100006.31;4851587;29;20029;-76
2023/09/29 04:06:22;;;;;;;0.00;0.00;;;;;;;14.01;100.00;100000.53;4888571;29;20028;-76
2023/09/29 04:08:47;;;;;;;0.00;0.00;;;;;;;13.92;100.00;100021.59;4857358;29;20028;-77
2023/09/29 04:11:13;;;;;;;0.00;0.00;;;;;;;13.81;100.00;100020.09;4867017;29;20501;-76
2023/09/29 04:13:38;;;;;;;0.00;0.00;;;;;;;13.74;100.00;100026.78;4883478;29;20455;-76
2023/09/29 04:16:08;;;;;;;0.00;0.00;;;;;;;13.77;100.00;100037.19;4838371;29;20444;-75
2023/09/29 04:18:34;;;;;;;0.00;0.00;;;;;;;13.71;100.00;100038.38;4888020;29;20032;-76
2023/09/29 04:21:01;;;;;;;0.00;0.00;;;;;;;13.82;100.00;100054.72;4887602;29;20128;-77
2023/09/29 04:23:27;;;;;;;0.00;0.00;;;;;;;13.91;100.00;100056.47;4873732;29;20039;-77
2023/09/29 04:25:52;;;;;;;0.00;0.00;;;;;;;14.01;100.00;100062.97;4858340;29;20037;-76
2023/09/29 04:28:18;;;;;;;0.00;0.00;;;;;;;14.05;100.00;100075.81;4887006;29;20040;-75
2023/09/29 04:30:43;;;;;;;0.00;0.00;;;;;;;14.02;100.00;100070.91;4861256;29;20029;-77
2023/09/29 04:33:09;;;;;;;0.00;0.00;;;;;;;13.90;100.00;100081.50;4868536;29;20092;-75
2023/09/29 04:35:34;;;;;;;0.00;0.00;;;;;;;13.70;100.00;100069.72;4842762;29;20037;-73
2023/09/29 04:38:00;;;;;;;0.00;0.00;;;;;;;13.66;100.00;100079.66;4857680;29;20486;-73
2023/09/29 04:40:26;;;;;;;0.00;0.00;;;;;;;13.76;100.00;100095.19;4869498;29;20071;-76
2023/09/29 04:42:54;;;;;;;0.00;0.00;;;;;;;13.83;100.00;100095.66;4842223;29;20033;-76
2023/09/29 04:45:19;;;;;;;0.00;0.00;;;;;;;13.91;100.00;100102.41;4843118;29;20037;-76
2023/09/29 04:47:45;;;;;;;0.00;0.00;;;;;;;14.00;100.00;100105.31;4842726;29;20471;-76
2023/09/29 04:50:11;;;;;;;0.00;0.00;;;;;;;14.07;100.00;100120.31;4843117;29;20028;-76
2023/09/29 04:52:36;;;;;;;0.00;0.00;;;;;;;14.12;100.00;100114.75;4855505;29;20052;-76
2023/09/29 04:55:02;;;;;;;0.00;0.00;;;;;;;14.13;100.00;100110.91;4868061;29;21890;-77
2023/09/29 04:57:28;;;;;;;0.00;0.00;;;;;;;14.22;100.00;100123.94;4888151;29;20035;-78
2023/09/29 04:59:58;;;;;;;0.00;0.00;;;;;;;14.19;100.00;100125.34;4841144;29;20032;-77
2023/09/29 05:02:30;;;;;;;0.00;0.00;;;;;;;14.19;100.00;100124.56;4875291;29;20048;-77
2023/09/29 05:04:56;;;;;;;0.00;0.00;;;;;;;14.24;100.00;100152.00;4864443;29;20044;-77
2023/09/29 05:07:22;;;;;;;0.00;0.00;;;;;;;14.20;100.00;100149.00;4864086;29;20171;-76
2023/09/29 05:09:47;;;;;;;0.00;0.00;;;;;;;14.15;100.00;100157.34;4866899;29;20539;-74
2023/09/29 05:12:13;;;;;;;0.00;0.00;;;;;;;14.26;100.00;100180.00;4860342;29;20070;-75
2023/09/29 05:14:38;;;;;;;0.00;0.00;;;;;;;14.23;100.00;100172.34;4861660;29;20045;-75
2023/09/29 05:17:03;;;;;;;0.00;0.00;;;;;;;14.27;100.00;100181.66;4865346;29;20033;-76
2023/09/29 05:19:29;;;;;;;0.00;0.00;;;;;;;14.23;100.00;100169.59;4873476;29;20372;-75
2023/09/29 05:21:54;;;;;;;0.00;0.00;;;;;;;14.28;100.00;100191.50;4872360;29;20041;-76
2023/09/29 05:24:20;;;;;;;0.00;0.00;;;;;;;14.29;100.00;100201.41;4858904;29;20033;-76
2023/09/29 05:26:45;;;;;;;0.00;0.00;;;;;;;14.23;100.00;100197.09;4860635;29;20103;-75
2023/09/29 05:29:11;;;;;;;0.00;0.00;;;;;;;14.06;100.00;100203.91;4852408;29;20036;-75
2023/09/29 05:31:36;;;;;;;0.00;0.00;;;;;;;13.79;100.00;100199.84;4856304;29;20041;-75
2023/09/29 05:34:02;;;;;;;0.00;0.00;;;;;;;13.54;100.00;100202.88;4870772;29;20037;-76
2023/09/29 05:36:29;;;;;;;0.00;0.00;;;;;;;13.36;100.00;100208.00;4862010;29;20089;-74
2023/09/29 05:38:55;;;;;;;0.00;0.00;;;;;;;13.33;100.00;100225.03;4849936;29;20029;-74
2023/09/29 05:41:20;;;;;;;0.00;0.00;;;;;;;13.39;100.00;100234.91;4852940;29;20059;-76
2023/09/29 05:43:45;;;;;;;0.00;0.00;;;;;;;13.39;100.00;100237.66;4871071;29;20025;-74
2023/09/29 05:46:11;;;;;;;0.00;0.00;;;;;;;13.37;100.00;100248.09;4856108;29;20021;-76
2023/09/29 05:48:37;;;;;;;0.00;0.00;;;;;;;13.38;100.00;100263.47;4841729;29;20452;-74
2023/09/29 05:51:03;;;;;;;0.00;0.00;;;;;;;13.26;100.00;100263.00;4864382;29;20474;-75
2023/09/29 05:53:28;;;;;;;0.00;0.00;;;;;;;13.22;100.00;100278.41;4850577;29;20032;-74
2023/09/29 05:55:54;;;;;;;0.00;0.00;;;;;;;13.12;100.00;100292.22;4847610;29;20032;-76
2023/09/29 05:58:20;;;;;;;0.00;0.00;;;;;;;13.07;100.00;100299.38;4868468;29;20111;-76
2023/09/29 06:00:45;;;;;;;0.00;0.00;;;;;;;13.07;100.00;100313.09;4866181;29;20068;-76
2023/09/29 06:03:11;;;;;;;0.00;0.00;;;;;;;13.02;100.00;100318.63;4890176;29;20075;-74
2023/09/29 06:05:36;;;;;;;0.00;0.00;;;;;;;13.03;100.00;100336.75;4887926;29;20640;-75
2023/09/29 06:08:02;;;;;;;0.00;0.00;;;;;;;12.96;100.00;100322.50;4838587;29;20025;-74
2023/09/29 06:10:27;;;;;;;0.00;0.00;;;;;;;12.96;100.00;100347.22;4858403;29;20597;-74
2023/09/29 06:12:53;;;;;;;0.00;0.00;;;;;;;12.92;100.00;100352.47;4846350;29;20075;-74
2023/09/29 06:15:19;;;;;;;0.00;0.00;;;;;;;12.89;100.00;100358.53;4858479;29;20037;-75
2023/09/29 06:17:45;;;;;;;0.00;0.00;;;;;;;12.84;100.00;100365.97;4864740;29;20463;-73
2023/09/29 06:20:11;;;;;;;0.00;0.00;;;;;;;12.80;100.00;100375.84;4855897;29;20037;-73
2023/09/29 06:22:36;;;;;;;0.00;0.00;;;;;;;12.69;100.00;100364.94;4859055;29;20088;-73
2023/09/29 06:25:02;;;;;;;0.00;0.00;;;;;;;12.74;100.00;100384.09;4881843;29;20085;-73
2023/09/29 06:27:27;;;;;;;0.00;0.00;;;;;;;12.72;100.00;100386.31;4870244;29;20380;-74
2023/09/29 06:29:56;;;;;;;0.00;0.00;;;;;;;12.74;100.00;100378.59;4880479;29;20479;-74
2023/09/29 06:32:26;;;;;;;0.00;0.00;;;;;;;12.70;100.00;100379.44;4863951;29;20035;-73
2023/09/29 06:34:52;;;;;;;0.00;0.00;;;;;;;12.74;100.00;100384.09;4874012;29;20111;-73
2023/09/29 06:37:22;;;;;;;0.00;0.00;;;;;;;12.70;100.00;100394.00;4881315;29;20140;-72
2023/09/29 06:39:48;;;;;;;0.00;0.00;;;;;;;12.75;100.00;100407.69;4862348;29;20032;-73
2023/09/29 06:42:16;;;;;;;0.00;0.00;;;;;;;12.61;100.00;100395.69;4884220;29;20063;-73
2023/09/29 06:44:49;;;;;;;0.00;0.00;;;;;;;12.54;100.00;100398.72;4860139;29;20044;-72
2023/09/29 06:47:17;;;;;;;0.00;0.00;;;;;;;12.59;100.00;100425.31;4863284;29;20128;-72
2023/09/29 06:49:48;;;;;;;0.00;0.00;;;;;;;12.50;100.00;100422.34;4852314;29;20039;-73
2023/09/29 06:52:14;;;;;;;0.00;0.00;;;;;;;12.50;100.00;100432.47;4863092;29;20033;-72
2023/09/29 06:54:39;;;;;;;0.00;0.00;;;;;;;12.48;100.00;100423.72;4887805;29;20043;-74
2023/09/29 06:57:09;;;;;;;0.00;0.00;;;;;;;12.51;100.00;100434.13;4881074;29;20538;-72
2023/09/29 06:59:37;;;;;;;0.00;0.00;;;;;;;12.59;100.00;100447.25;4881591;29;20039;-73
2023/09/29 07:02:03;;;;;;;0.00;0.00;;;;;;;12.51;100.00;100445.94;4881852;29;20051;-74
2023/09/29 07:04:32;;;;;;;0.00;0.00;;;;;;;12.54;100.00;100458.25;4879521;29;20436;-73
2023/09/29 07:06:58;;;;;;;0.00;0.00;;;;;;;12.47;100.00;100450.31;4874058;29;20507;-74
2023/09/29 07:09:24;;;;;;;0.00;0.00;;;;;;;12.54;100.00;100466.47;4882838;29;20024;-73
2023/09/29 07:11:50;;;;;;;0.00;0.00;;;;;;;12.53;100.00;100464.84;4869899;29;20036;-74
2023/09/29 07:14:18;;;;;;;0.00;0.00;;;;;;;12.69;100.00;100493.88;4885075;29;20055;-73
2023/09/29 07:16:46;;;;;;;0.00;0.00;;;;;;;12.55;100.00;100468.13;4888234;29;20041;-74
2023/09/29 07:19:16;;;;;;;0.00;0.00;;;;;;;12.62;100.00;100484.31;4888331;29;20032;-74
2023/09/29 07:21:41;;;;;;;0.00;0.00;;;;;;;12.73;100.00;100503.19;4886414;29;20033;-74
2023/09/29 07:24:08;;;;;;;0.00;0.00;;;;;;;12.83;100.00;100498.78;4855726;29;20037;-73
2023/09/29 07:26:34;;;;;;;0.00;0.00;;;;;;;13.03;100.00;100512.41;4883714;29;20927;-73
2023/09/29 07:29:01;;;;;;;0.00;0.00;;;;;;;13.28;100.00;100529.91;4863084;29;20641;-75
2023/09/29 07:31:38;;;;;;;0.00;0.00;;;;;;;13.35;100.00;100544.19;4841117;29;20035;-73
2023/09/29 07:34:03;;;;;;;0.00;0.00;;;;;;;13.23;98.10;100544.47;4888990;29;20056;-74
2023/09/29 07:36:31;;;;;;;0.00;0.00;;;;;;;13.20;97.95;100555.19;4849019;29;20060;-73
2023/09/29 07:38:58;;;;;;;0.00;0.00;;;;;;;13.42;97.34;100552.94;4869940;29;20029;-74
2023/09/29 07:41:23;;;;;;;0.00;0.00;;;;;;;14.09;93.58;100555.28;4883600;29;20452;-74
2023/09/29 07:43:48;;;;;;;0.00;0.00;;;;;;;14.93;86.95;100558.97;4844529;29;20112;-72
2023/09/29 07:46:21;;;;;;;0.00;0.00;;;;;;;16.23;80.97;100557.75;4832786;29;20071;-73
2023/09/29 07:48:47;;;;;;;0.00;0.00;;;;;;;17.34;74.10;100570.97;4858302;29;20037;-73
2023/09/29 07:51:12;;;;;;;0.00;0.00;;;;;;;18.26;69.19;100573.63;4841507;29;20668;-73
2023/09/29 07:53:40;;;;;;;0.00;0.00;;;;;;;18.90;64.41;100575.34;4864523;29;20028;-74
2023/09/29 07:56:06;;;;;;;0.00;0.00;;;;;;;19.67;62.16;100586.22;4842128;29;20044;-74
2023/09/29 07:58:31;;;;;;;0.00;0.00;;;;;;;20.74;59.49;100595.03;4838768;29;20058;-75
2023/09/29 08:01:07;;;;;;;;;;;;;;;;;;;;;
2023/09/29 08:03:32;;;;;;;0.00;0.00;;;;;;;21.97;52.53;100598.84;4892600;29;20065;-70
2023/09/29 08:05:58;;;;;;;0.00;0.00;;;;;;;22.35;51.14;100608.25;4855821;29;20032;-73
2023/09/29 08:08:24;;;;;;;0.00;0.00;;;;;;;22.39;49.85;100627.88;4866635;29;20110;-72
2023/09/29 08:10:51;;;;;;;0.00;0.00;;;;;;;23.16;49.91;100631.03;4850123;29;20032;-73
2023/09/29 08:13:17;;;;;;;0.00;0.00;;;;;;;23.95;46.79;100629.19;4884294;29;20037;-72
2023/09/29 08:15:42;;;;;;;0.00;0.00;;;;;;;23.90;46.20;100632.22;4848768;29;20036;-71
2023/09/29 08:18:08;;;;;;;0.00;0.00;;;;;;;23.87;44.71;100622.56;4870497;29;20036;-74
2023/09/29 08:20:34;;;;;;;0.00;0.00;;;;;;;24.22;44.80;100650.78;4883072;29;20025;-73
2023/09/29 08:22:59;;;;;;;0.00;0.00;;;;;;;24.97;43.95;100658.84;4856291;29;20037;-73
2023/09/29 08:25:26;;;;;;;0.00;0.00;;;;;;;26.07;41.16;100662.00;4850942;29;20172;-70
2023/09/29 08:28:01;;;;;;;0.00;0.00;;;;;;;27.09;40.14;100668.47;4877767;29;20096;-77
2023/09/29 08:30:27;;;;;;;0.00;0.00;;;;;;;28.07;38.06;100676.53;4867508;29;20084;-76
2023/09/29 08:32:53;;;;;;;0.00;0.00;;;;;;;29.52;34.72;100668.50;4862889;29;21405;-74
2023/09/29 08:35:18;;;;;;;0.00;0.00;;;;;;;30.11;33.43;100686.25;4871582;29;20036;-74
2023/09/29 08:37:45;;;;;;;0.00;0.00;;;;;;;30.48;33.26;100680.84;4861741;29;20079;-73
2023/09/29 08:40:12;;;;;;;0.00;0.00;;;;;;;30.94;32.35;100674.50;4885167;29;20028;-75
2023/09/29 08:42:44;;;;;;;0.00;0.00;;;;;;;31.89;31.79;100687.47;4886759;29;20114;-74
2023/09/29 08:45:11;;;;;;;0.00;0.00;;;;;;;32.48;29.04;100673.59;4881971;29;20032;-74
2023/09/29 08:47:38;;;;;;;0.00;0.00;;;;;;;32.66;30.64;100676.31;4880347;29;20024;-74
2023/09/29 08:50:06;;;;;;;0.00;0.00;;;;;;;34.40;29.75;100679.38;4880041;29;20064;-73
2023/09/29 08:52:37;;;;;;;0.00;0.00;;;;;;;35.47;26.85;100679.06;4863361;29;20032;-72
2023/09/29 08:55:03;;;;;;;0.00;0.00;;;;;;;34.79;26.25;100678.03;4876931;29;21649;-74
2023/09/29 08:57:29;;;;;;;0.00;0.00;;;;;;;35.03;25.84;100685.81;4865332;29;20255;-74
2023/09/29 08:59:55;;;;;;;0.00;0.00;;;;;;;35.77;25.52;100694.34;4868381;29;20562;-73
2023/09/29 09:02:22;;;;;;;0.00;0.00;;;;;;;35.42;24.50;100695.81;4850499;29;20115;-73
2023/09/29 09:04:47;;;;;;;0.00;0.00;;;;;;;35.48;26.22;100708.28;4861755;29;20089;-72
2023/09/29 09:07:17;;;;;;;0.00;0.00;;;;;;;36.49;25.60;100712.94;4878029;29;20041;-74
2023/09/29 09:09:52;;;;;;;0.00;0.00;;;;;;;36.46;23.74;100715.84;4864562;29;20040;-73
2023/09/29 09:12:18;;;;;;;0.00;0.00;;;;;;;36.26;23.09;100728.03;4864540;29;20137;-72
2023/09/29 09:14:47;;;;;;;0.00;0.00;;;;;;;34.94;24.55;100737.50;4879937;29;20483;-72
2023/09/29 09:17:13;;;;;;;0.00;0.00;;;;;;;35.02;25.17;100733.34;4885364;29;20523;-75
2023/09/29 09:19:50;;;;;;;0.00;0.00;;;;;;;35.99;24.54;100740.31;4862199;29;20066;-72
2023/09/29 09:22:18;;;;;;;0.00;0.00;;;;;;;36.75;24.07;100738.84;4844975;29;20044;-72
2023/09/29 09:24:44;;;;;;;0.00;0.00;;;;;;;36.85;22.64;100748.44;4851224;29;20090;-72
2023/09/29 09:27:10;;;;;;;0.00;0.00;;;;;;;37.40;23.13;100753.69;4885971;29;20025;-73
2023/09/29 09:29:42;;;;;;;0.00;0.00;;;;;;;37.98;20.97;100764.50;4866758;29;20079;-73
2023/09/29 09:32:09;;;;;;;0.00;0.00;;;;;;;37.52;21.50;100761.56;4869048;29;20037;-73
2023/09/29 09:34:37;;;;;;;0.00;0.00;;;;;;;37.08;21.92;100772.31;4865413;29;20020;-73
2023/09/29 09:37:05;;;;;;;0.00;0.00;;;;;;;35.03;23.05;100773.91;4884400;29;20028;-76
2023/09/29 09:39:33;;;;;;;0.00;0.00;;;;;;;34.75;24.12;100745.41;4865719;29;20021;-76
2023/09/29 09:42:05;;;;;;;0.00;0.00;;;;;;;35.63;23.43;100786.44;4863495;29;20048;-74
2023/09/29 09:44:32;;;;;;;0.00;0.00;;;;;;;34.58;23.60;100784.19;4865307;29;20055;-74
2023/09/29 09:47:03;;;;;;;0.00;0.00;;;;;;;33.60;25.15;100793.97;4868606;29;20788;-74
2023/09/29 09:49:41;;;;;;;0.00;0.00;;;;;;;32.86;26.55;100792.75;4851432;29;20060;-73
2023/09/29 09:52:12;;;;;;;0.00;0.00;;;;;;;32.27;26.82;100800.97;4850166;29;20133;-73
2023/09/29 09:54:49;;;;;;;0.00;0.00;;;;;;;32.89;26.10;100800.41;4886624;29;20143;-72
2023/09/29 09:57:33;;;;;;;0.00;0.00;;;;;;;32.99;25.91;100793.09;4890031;29;20024;-73
2023/09/29 10:00:06;;;;;;;0.00;0.00;;;;;;;33.57;25.46;100799.25;4876311;29;20063;-73
2023/09/29 10:02:33;;;;;;;0.00;0.00;;;;;;;34.04;24.59;100803.75;4876182;29;20142;-72
2023/09/29 10:05:10;;;;;;;0.00;0.00;;;;;;;34.69;24.40;100815.28;4882298;29;20043;-74
2023/09/29 10:07:46;;;;;;;0.00;0.00;;;;;;;37.04;22.35;100824.53;4858917;29;20111;-74
2023/09/29 10:10:31;;;;;;;0.00;0.00;;;;;;;38.75;20.52;100828.47;4889822;29;20064;-74
2023/09/29 10:13:00;;;;;;;0.00;0.00;;;;;;;38.79;19.81;100839.03;4881684;29;20080;-75
2023/09/29 10:15:35;;;;;;;0.00;0.00;;;;;;;37.65;20.95;100833.75;4887626;29;20067;-73
2023/09/29 10:18:13;;;;;;;0.00;0.00;;;;;;;36.18;22.85;100837.56;4852477;29;20020;-72
2023/09/29 10:20:39;;;;;;;0.00;0.00;;;;;;;36.10;22.18;100827.56;4882946;29;20028;-73
2023/09/29 10:23:15;;;;;;;0.00;0.00;;;;;;;34.05;24.52;100845.09;4882443;29;20388;-76
2023/09/29 10:25:54;;;;;;;0.00;0.00;;;;;;;34.14;23.94;100841.78;4856846;29;20032;-76
2023/09/29 10:28:32;;;;;;;0.00;0.00;;;;;;;31.82;27.48;100841.78;4881890;29;22716;-74
2023/09/29 10:31:18;;;;;;;0.00;0.00;;;;;;;32.80;26.60;100842.53;4864547;29;20389;-75
2023/09/29 10:33:54;;;;;;;0.00;0.00;;;;;;;32.14;27.78;100834.53;4882660;29;20029;-74
2023/09/29 10:36:25;;;;;;;0.00;0.00;;;;;;;32.02;28.55;100841.38;4865435;29;20043;-75
2023/09/29 10:38:51;;;;;;;0.00;0.00;;;;;;;33.21;28.09;100847.66;4882414;29;20037;-75
2023/09/29 10:41:22;;;;;;;0.00;0.00;;;;;;;32.51;28.58;100842.56;4886958;29;20116;-73
2023/09/29 10:43:48;;;;;;;0.00;0.00;;;;;;;31.85;29.53;100855.13;4848448;29;20040;-74
2023/09/29 10:46:20;;;;;;;0.00;0.00;;;;;;;31.01;30.54;100843.97;4887735;29;20028;-73
2023/09/29 10:48:51;;;;;;;0.00;0.00;;;;;;;31.94;30.48;100848.25;4874309;29;20132;-76
2023/09/29 10:51:27;;;;;;;0.00;0.00;;;;;;;35.13;26.86;100861.84;4886585;29;20387;-73
2023/09/29 10:54:03;;;;;;;0.00;0.00;;;;;;;36.82;22.67;100849.81;4889206;29;20546;-74
2023/09/29 10:56:29;;;;;;;0.00;0.00;;;;;;;33.73;25.87;100851.78;4880277;29;20115;-75
2023/09/29 10:58:59;;;;;;;0.00;0.00;;;;;;;33.11;27.11;100859.81;4885683;29;20108;-77
2023/09/29 11:01:32;;;;;;;0.00;0.00;;;;;;;34.11;26.60;100857.59;4881760;29;20051;-76
2023/09/29 11:03:58;;;;;;;0.00;0.00;;;;;;;36.76;23.15;100865.00;4864877;29;20038;-73
2023/09/29 11:06:24;;;;;;;0.00;0.00;;;;;;;39.19;21.29;100858.69;4885143;29;20566;-74
2023/09/29 11:08:55;;;;;;;0.00;0.00;;;;;;;40.52;19.59;100876.47;4885658;29;20040;-73
2023/09/29 11:11:20;;;;;;;0.00;0.00;;;;;;;41.71;18.50;100881.41;4880524;29;20150;-74
2023/09/29 11:13:55;;;;;;;0.00;0.00;;;;;;;40.18;19.53;100901.75;4872309;29;20123;-75
2023/09/29 11:16:24;;;;;;;0.00;0.00;;;;;;;39.05;19.83;100877.84;4862357;29;20041;-74
2023/09/29 11:18:50;;;;;;;0.00;0.00;;;;;;;35.37;22.81;100861.97;4872208;29;20115;-74
2023/09/29 11:21:19;;;;;;;0.00;0.00;;;;;;;32.70;26.45;100874.50;4861734;29;20111;-73
2023/09/29 11:23:46;;;;;;;0.00;0.00;;;;;;;30.53;29.70;100880.75;4869271;29;20113;-74
2023/09/29 11:26:13;;;;;;;0.00;0.00;;;;;;;28.09;33.35;100877.31;4884988;29;20021;-73